Aviation Digital Data Service (ADDS)

Output produced by METARs form (1506 UTC 03 August 2015)
found at http://www.aviationweather.gov/adds/metars/
 
METAR text: KCCU 031454Z AUTO 15013G19KT 10SM OVC065 11/00 A3057 RMK AO2
Conditions at: KCCU (RED CLIFF PASS , CO, US) observed 1454 UTC 03 August 2015
Temperature: 11.0°C (52°F)
Dewpoint: 0.0°C (32°F) [RH = 47%]
Pressure (altimeter): 30.57 inches Hg (1035.3 mb)
Winds: from the SSE (150 degrees) at 15 MPH (13 knots; 6.8 m/s)
gusting to 22 MPH (19 knots; 9.9 m/s)
Visibility: 10 or more miles (16+ km)
Ceiling: 6500 feet AGL
Clouds: overcast cloud deck at 6500 feet AGL
Weather: automated observation with no human augmentation;
there may or may not be significant weather present at this time